Home > Products > Valid Products > MTR

000
SAUS45 KLKN 270957
MTRWMC
METAR KWMC 270956Z AUTO 09003KT 10SM BKN110 11/08 A3000 RMK AO2
SLP128 T01060078 TSNO





000
SAUS45 KLKN 270954
MTRP68
METAR KP68 270953Z AUTO 11007KT 11/06 A3009 RMK AO1 SLP122 T01110056





000
SAUS45 KLKN 270857
MTRWMC
METAR KWMC 270856Z AUTO 11006KT 10SM OVC100 12/08 RMK AO2 SLPNO
T01170078 TSNO $





000
SAUS45 KLKN 270854
MTRP68
METAR KP68 270853Z AUTO 21004KT 08/05 A3006 RMK AO1 SLP123 T00780050
51001





000
SAUS45 KLKN 270757
MTRWMC
METAR KWMC 270756Z AUTO 12007KT 10SM BKN090 OVC110 12/08 A2999 RMK
AO2 SLP124 T01170078 402220056 TSNO





000
SAUS45 KLKN 270755
MTRP68
METAR KP68 270753Z AUTO 20004KT 09/06 A3006 RMK AO1 SLP119 T00940056
402110056





000
SAUS45 KLKN 270657
MTRWMC
METAR KWMC 270656Z AUTO 17009KT 10SM FEW090 12/08 A2998 RMK AO2
SLP119 T01170078 TSNO





000
SAUS45 KLKN 270657
MTRWMC
METAR KWMC 270656Z AUTO 17009KT 10SM FEW090 12/08 A2998 RMK AO2
SLP119 T01170078 TSNO





000
SAUS45 KLKN 270654
MTRP68
METAR KP68 270653Z AUTO 17003KT 11/06 A3006 RMK AO1 SLP117 T01060061





000
SAUS45 KLKN 270600 COR
MTRWMC
METAR KWMC 270556Z AUTO 13007KT 10SM FEW065 FEW110 12/09 A2996 RMK
AO2 PK WND 25030/0458 WSHFT 0456 RAE46 SLP114 P0003 60004 T01220089
10211 20122 50009 TSNO





000
SAUS45 KLKN 270600 COR
MTRWMC
METAR KWMC 270556Z AUTO 13007KT 10SM FEW065 FEW110 12/09 A2996 RMK
AO2 PK WND 25030/0458 WSHFT 0456 RAE46 SLP114 P0003 60004 T01220089
10211 20122 50009 TSNO





000
SAUS45 KLKN 270558 COR
MTRWMC
METAR KWMC 270556Z AUTO 13007KT 10SM FEW065 FEW110 12/09 A2996 RMK
AO2 PK WND 25030/0458 WSHFT 0456 RAE46 SLP114 P0003 60004 T01220089
10211 20122 50009 TSNO





000
SAUS45 KLKN 270558 COR
MTRWMC
METAR KWMC 270556Z AUTO 13007KT 10SM FEW065 FEW110 12/09 A2996 RMK
AO2 PK WND 25030/0458 WSHFT 0456 RAE46 SLP114 P0003 60004 T01220089
10211 20122 50009 TSNO





000
SAUS45 KLKN 270557
MTRWMC
METAR KWMC 270556Z AUTO 13007KT 10SM FEW065 FEW110 12/09 A2996 RMK
AO2 PK WND 25030/0458 WSHFT 0456 RAE46 SLP114 P0003 60004 T01220089
10211 20122 50009 TSNO





000
SAUS45 KLKN 270554
MTRP68
METAR KP68 270553Z AUTO 17005KT 11/07 A3005 RMK AO1 SLP119 60003
T01110067 10189 20106 50009





000
SAUS45 KLKN 270554
MTRP68
METAR KP68 270553Z AUTO 17005KT 11/07 A3005 RMK AO1 SLP119 60003
T01110067 10189 20106 50009





000
SAUS45 KLKN 270517
MTRWMC
SPECI KWMC 270516Z AUTO 19007KT 7SM -RA SCT065 BKN075 OVC090 14/08
A2998 RMK AO2 PK WND 25030/0458 WSHFT 0456 P0003 T01390083 TSNO





000
SAUS45 KLKN 270517
MTRWMC
SPECI KWMC 270516Z AUTO 19007KT 7SM -RA SCT065 BKN075 OVC090 14/08
A2998 RMK AO2 PK WND 25030/0458 WSHFT 0456 P0003 T01390083 TSNO





000
SAUS45 KLKN 270458
MTRWMC
METAR KWMC 270456Z AUTO 27012G19KT 10SM -RA OVC080 16/08 A2998 RMK
AO2 RAB14E24B40 SLP118 P0001 T01560078 TSNO





000
SAUS45 KLKN 270458
MTRWMC
METAR KWMC 270456Z AUTO 27012G19KT 10SM -RA OVC080 16/08 A2998 RMK
AO2 RAB14E24B40 SLP118 P0001 T01560078 TSNO





000
SAUS45 KLKN 270454
MTRP68
METAR KP68 270453Z AUTO 17005KT 13/07 A3006 RMK AO1 SLP119 T01330072





000
SAUS45 KLKN 270358
MTRWMC
METAR KWMC 270356Z AUTO 14007KT 10SM FEW095 16/08 A2995 RMK AO2
SLP109 T01560083 TSNO





000
SAUS45 KLKN 270355
MTRP68
METAR KP68 270353Z AUTO 21003KT 13/08 A3004 RMK AO1 SLP116 T01330078





000
SAUS45 KLKN 270258
MTRWMC
METAR KWMC 270256Z AUTO 24006KT 10SM FEW035 SCT085 18/06 A2994 RMK
AO2 SLP103 60000 T01830061 55007 TSNO





000
SAUS45 KLKN 270255
MTRP68
METAR KP68 270253Z AUTO 22003KT 16/09 A3002 RMK AO1 SLP110 60003
T01560089 51005





000
SAUS45 KLKN 270157
MTRWMC
METAR KWMC 270156Z AUTO 15003KT 10SM CLR 18/11 A2993 RMK AO2 SLP110
T01780111 TSNO





000
SAUS45 KLKN 270154
MTRP68
METAR KP68 270153Z AUTO 11006KT 17/07 A3002 RMK AO1 SLP112 T01670072





000
SAUS45 KLKN 270058
MTRWMC
METAR KWMC 270056Z AUTO 09005KT 10SM CLR 21/09 A2994 RMK AO2 RAE00
SLP112 P0000 T02060089 TSNO





000
SAUS45 KLKN 270054
MTRP68
METAR KP68 270053Z AUTO 24003KT 15/09 A3002 RMK AO1 SLP119 P0003
T01500089





000
SAUS45 KLKN 262358
MTRWMC
METAR KWMC 262356Z AUTO 03005KT 10SM -RA FEW040 BKN060 OVC095 18/11
A2996 RMK AO2 RAB19 SLP123 P0007 60007 T01780111 10222 20156 56003
TSNO





000
SAUS45 KLKN 262355
MTRP68
METAR KP68 262353Z AUTO 15010KT 19/06 A3001 RMK AO1 SLP106 T01890056
10211 20172 56010





000
SAUS45 KLKN 262355
MTRP68
METAR KP68 262353Z AUTO 15010KT 19/06 A3001 RMK AO1 SLP106 T01890056
10211 20172 56010





000
SAUS45 KLKN 262258
MTRWMC
METAR KWMC 262256Z AUTO 27007KT 10SM CLR 22/07 A2996 RMK AO2 SLP119
T02170067 TSNO





000
SAUS45 KLKN 262255
MTRP68
METAR KP68 262253Z AUTO 17006KT 21/05 A3001 RMK AO1 SLP103 T02110050





000
SAUS45 KLKN 262255
MTRP68
METAR KP68 262253Z AUTO 17006KT 21/05 A3001 RMK AO1 SLP103 T02110050





000
SAUS45 KLKN 262158
MTRWMC
METAR KWMC 262156Z AUTO 24015G19KT 10SM FEW095 22/06 A2996 RMK AO2
SLP113 T02170056 TSNO





000
SAUS45 KLKN 262154
MTRP68
METAR KP68 262153Z AUTO 04009KT 21/04 A3001 RMK AO1 SLP105 T02060044





000
SAUS45 KLKN 262058
MTRWMC
METAR KWMC 262056Z AUTO 25010KT 10SM FEW100 22/05 A2997 RMK AO2
SLP117 T02170050 TSNO





000
SAUS45 KLKN 262054
MTRP68
METAR KP68 262053Z AUTO 36010KT 19/06 A3004 RMK AO1 SLP116 T01890056
56012





000
SAUS45 KLKN 261958
MTRWMC
METAR KWMC 261956Z AUTO 24009G18KT 190V290 10SM CLR 22/06 A2998 RMK
AO2 SLP120 T02170056 TSNO





000
SAUS45 KLKN 261958
MTRWMC
METAR KWMC 261956Z AUTO 24009G18KT 190V290 10SM CLR 22/06 A2998 RMK
AO2 SLP120 T02170056 TSNO





000
SAUS45 KLKN 261954
MTRP68
METAR KP68 261953Z AUTO 25006KT 19/04 A3005 RMK AO1 SLP117 T01940039





000
SAUS45 KLKN 261858
MTRWMC
METAR KWMC 261856Z AUTO 22009KT 10SM FEW050 21/08 RMK AO2 SLPNO
T02110083 TSNO $





000
SAUS45 KLKN 261854
MTRP68
METAR KP68 261853Z AUTO 29007KT 19/06 A3006 RMK AO1 SLP122 T01890056





000
SAUS45 KLKN 261758
MTRWMC
METAR KWMC 261756Z AUTO VRB05KT 10SM CLR 19/08 A3002 RMK AO2 SLP134
T01940078 10200 20056 TSNO





000
SAUS45 KLKN 261754
MTRP68
METAR KP68 261753Z AUTO 28008KT 17/05 A3008 RMK AO1 SLP131 T01670050
10167 20061 58001





000
SAUS45 KLKN 261658
MTRWMC
METAR KWMC 261656Z AUTO VRB03KT 10SM CLR 18/08 A3002 RMK AO2 SLP137
T01780078 TSNO





000
SAUS45 KLKN 261658
MTRWMC
METAR KWMC 261656Z AUTO VRB03KT 10SM CLR 18/08 A3002 RMK AO2 SLP137
T01780078 TSNO





000
SAUS45 KLKN 261655
MTRP68
METAR KP68 261653Z AUTO 04005KT 16/07 A3009 RMK AO1 SLP136 T01560072





000
SAUS45 KLKN 261558
MTRWMC
METAR KWMC 261556Z AUTO 19005KT 10SM CLR 17/08 A3003 RMK AO2 SLP140
T01670083 TSNO





000
SAUS45 KLKN 261555
MTRP68
METAR KP68 261553Z AUTO 18003KT 13/06 A3009 RMK AO1 SLP140 T01330061





000
SAUS45 KLKN 261555
MTRP68
METAR KP68 261553Z AUTO 18003KT 13/06 A3009 RMK AO1 SLP140 T01330061





000
SAUS45 KLKN 261457
MTRWMC
METAR KWMC 261456Z AUTO 17011KT 10SM CLR 15/08 RMK AO2 SLPNO
T01500083 TSNO $





000
SAUS45 KLKN 261454
MTRP68
METAR KP68 261453Z AUTO 24003KT 11/07 A3009 RMK AO1 SLP140 T01110067
51003





000
SAUS45 KLKN 261454
MTRP68
METAR KP68 261453Z AUTO 24003KT 11/07 A3009 RMK AO1 SLP140 T01110067
51003





000
SAUS45 KLKN 261358
MTRWMC
METAR KWMC 261356Z AUTO 00000KT 10SM CLR 10/07 RMK AO2 SLPNO
T01000072 TSNO $





000
SAUS45 KLKN 261354
MTRP68
METAR KP68 261353Z AUTO 18003KT 08/06 A3008 RMK AO1 SLP136 T00830061





000
SAUS45 KLKN 261354
MTRP68
METAR KP68 261353Z AUTO 18003KT 08/06 A3008 RMK AO1 SLP136 T00830061





000
SAUS45 KLKN 261258
MTRWMC
METAR KWMC 261256Z AUTO 11005KT 10SM CLR 06/05 RMK AO2 SLPNO
T00610050 TSNO $





000
SAUS45 KLKN 261254
MTRP68
METAR KP68 261253Z AUTO 22005KT 07/05 A3008 RMK AO1 SLP131 T00670050





000
SAUS45 KLKN 261254
MTRP68
METAR KP68 261253Z AUTO 22005KT 07/05 A3008 RMK AO1 SLP131 T00670050





000
SAUS45 KLKN 261158
MTRWMC
METAR KWMC 261156Z AUTO 15005KT 10SM CLR 06/06 RMK AO2 SLPNO
T00610056 10117 20056 TSNO $





000
SAUS45 KLKN 261158
MTRWMC
METAR KWMC 261156Z AUTO 15005KT 10SM CLR 06/06 RMK AO2 SLPNO
T00610056 10117 20056 TSNO $





000
SAUS45 KLKN 261154
MTRP68
METAR KP68 261153Z AUTO 17006KT 07/04 A3007 RMK AO1 SLP129 70026
T00670044 10094 20056 55000





000
SAUS45 KLKN 261058
MTRWMC
METAR KWMC 261056Z AUTO 09005KT 10SM CLR 06/05 RMK AO2 SLPNO
T00610050 TSNO $





000
SAUS45 KLKN 261054
MTRP68
METAR KP68 261053Z AUTO 18006KT 06/04 A3007 RMK AO1 SLP129 T00610044





000
SAUS45 KLKN 261054
MTRP68
METAR KP68 261053Z AUTO 18006KT 06/04 A3007 RMK AO1 SLP129 T00610044





000
SAUS45 KLKN 260958
MTRWMC
METAR KWMC 260956Z AUTO 17005KT 10SM CLR 11/07 RMK AO2 SLPNO
T01060067 TSNO $





000
SAUS45 KLKN 260958
MTRWMC
METAR KWMC 260956Z AUTO 17005KT 10SM CLR 11/07 RMK AO2 SLPNO
T01060067 TSNO $





000
SAUS45 KLKN 260954
MTRP68
METAR KP68 260953Z AUTO 00000KT 07/05 A3007 RMK AO1 SLP128 T00670050





000
SAUS45 KLKN 260954
MTRP68
METAR KP68 260953Z AUTO 00000KT 07/05 A3007 RMK AO1 SLP128 T00670050





000
SAUS45 KLKN 260857
MTRWMC
METAR KWMC 260856Z AUTO 19008KT 10SM CLR 11/07 RMK AO2 SLPNO
T01060072 TSNO $





000
SAUS45 KLKN 260855
MTRP68
METAR KP68 260853Z AUTO 00000KT 07/06 A3007 RMK AO1 SLP130 T00720056
56004





000
SAUS45 KLKN 260757
MTRWMC
METAR KWMC 260756Z AUTO 18011KT 10SM CLR 11/07 A2999 RMK AO2 SLP126
T01110072 402170061 TSNO





000
SAUS45 KLKN 260755
MTRP68
METAR KP68 260753Z AUTO 21004KT 08/06 A3007 RMK AO1 SLP129 T00780061
402060033





000
SAUS45 KLKN 260657
MTRWMC
METAR KWMC 260656Z AUTO 18007KT 10SM SCT090 10/08 A3000 RMK AO2
SLP128 T01000078 TSNO





000
SAUS45 KLKN 260654
MTRP68
METAR KP68 260653Z AUTO 00000KT 09/07 A3008 RMK AO1 SLP129 T00890067





000
SAUS45 KLKN 260557
MTRWMC
METAR KWMC 260556Z AUTO 00000KT 10SM FEW085 OVC110 12/07 A2999 RMK
AO2 SLP124 T01170072 10178 20111 51009 TSNO





000
SAUS45 KLKN 260554
MTRP68
METAR KP68 260553Z AUTO 11004KT 09/07 A3009 RMK AO1 SLP133 P0002
60026 T00940072 10206 20094 50012





000
SAUS45 KLKN 260457
MTRWMC
METAR KWMC 260456Z AUTO 19005KT 10SM BKN100 12/08 A2999 RMK AO2
SLP127 T01170078 TSNO





000
SAUS45 KLKN 260455
MTRP68
METAR KP68 260453Z AUTO 00000KT 09/07 A3011 RMK AO1 SLP141 P0004
T00940067





000
SAUS45 KLKN 260455
MTRP68
METAR KP68 260453Z AUTO 00000KT 09/07 A3011 RMK AO1 SLP141 P0004
T00940067





000
SAUS45 KLKN 260357
MTRWMC
METAR KWMC 260356Z AUTO 16007KT 10SM CLR 12/08 A2997 RMK AO2 SLP122
T01220078 TSNO





000
SAUS45 KLKN 260355
MTRP68
METAR KP68 260353Z AUTO 31007KT 10/07 A3009 RMK AO1 SLP140 P0010
T01000067





000
SAUS45 KLKN 260257
MTRWMC
METAR KWMC 260256Z AUTO 09004KT 10SM FEW085 14/09 A2996 RMK AO2
WSHFT 0143 SLP122 T01440089 TSNO





000
SAUS45 KLKN 260255
MTRP68
METAR KP68 260253Z AUTO 17008KT 12/08 A3005 RMK AO1 WSHFT 0151
SLP125 P0010 60010 T01170078 53021





000
SAUS45 KLKN 260255
MTRP68
METAR KP68 260253Z AUTO 17008KT 12/08 A3005 RMK AO1 WSHFT 0151
SLP125 P0010 60010 T01170078 53021





000
SAUS45 KLKN 260209
MTRP68
SPECI KP68 260208Z AUTO 25015G25KT 12/07 A3003 RMK AO1 WSHFT 0151
PRESRR P0001 T01220072





000
SAUS45 KLKN 260205
MTRWMC
SPECI KWMC 260203Z AUTO 24018G24KT 10SM OVC085 14/09 A2996 RMK AO2
WSHFT 0143 T01440089 TSNO





000
SAUS45 KLKN 260157
MTRWMC
METAR KWMC 260156Z AUTO 23014G24KT 10SM OVC085 14/09 A2996 RMK AO2
PK WND 25026/0145 SLP126 T01440094 TSNO





000
SAUS45 KLKN 260154
MTRP68
METAR KP68 260153Z AUTO 20012G17KT 16/04 A2999 RMK AO1 SLP104
T01610039





000
SAUS45 KLKN 260154
MTRP68
METAR KP68 260153Z AUTO 20012G17KT 16/04 A2999 RMK AO1 SLP104
T01610039





000
SAUS45 KLKN 260058
MTRWMC
METAR KWMC 260056Z AUTO 17006KT 10SM FEW110 17/08 A2995 RMK AO2
SLP120 T01720078 TSNO





000
SAUS45 KLKN 260054
MTRP68
METAR KP68 260053Z AUTO 08005KT 20/02 A2997 RMK AO1 SLP095 T02000017





000
SAUS45 KLKN 260054
MTRP68
METAR KP68 260053Z AUTO 08005KT 20/02 A2997 RMK AO1 SLP095 T02000017





000
SAUS45 KLKN 252358
MTRWMC
METAR KWMC 252356Z AUTO 00000KT 10SM FEW046 BKN085 BKN110 16/09 RMK
AO2 RAE08B30E56 SLPNO P0000 60000 T01560094 10217 20144 TSNO $





000
SAUS45 KLKN 252354
MTRP68
METAR KP68 252353Z AUTO 29008KT 20/01 A2997 RMK AO1 SLP097 T02000011
10206 20167 56012





000
SAUS45 KLKN 252354
MTRP68
METAR KP68 252353Z AUTO 29008KT 20/01 A2997 RMK AO1 SLP097 T02000011
10206 20167 56012





000
SAUS45 KLKN 252258
MTRWMC
METAR KWMC 252256Z AUTO 32011KT 7SM -RA SCT065 OVC085 14/10 RMK AO2
RAB50 SLPNO P0000 T01440100 TSNO $





000
SAUS45 KLKN 252258
MTRWMC
METAR KWMC 252256Z AUTO 32011KT 7SM -RA SCT065 OVC085 14/10 RMK AO2
RAB50 SLPNO P0000 T01440100 TSNO $





000
SAUS45 KLKN 252254
MTRP68
METAR KP68 252253Z AUTO 21003KT 19/01 A2997 RMK AO1 SLP100 T01890011





000
SAUS45 KLKN 252157
MTRWMC
METAR KWMC 252156Z AUTO 16015G22KT 10SM FEW070 BKN095 19/09 RMK AO2
SLPNO T01890094 TSNO $





000
SAUS45 KLKN 252154
MTRP68
METAR KP68 252153Z AUTO 12006KT 19/02 A2999 RMK AO1 SLP102 T01940017





000
SAUS45 KLKN 252057
MTRWMC
METAR KWMC 252056Z AUTO 13010KT 10SM FEW095 SCT120 21/09 RMK AO2
SLPNO T02110089 TSNO $





000
SAUS45 KLKN 252055
MTRP68
METAR KP68 252053Z AUTO VRB04KT 18/03 A3001 RMK AO1 SLP114 T01830028
56006





000
SAUS45 KLKN 251957
MTRWMC
METAR KWMC 251956Z AUTO 18004KT 10SM FEW120 19/08 RMK AO2 SLPNO
T01940083 TSNO $





000
SAUS45 KLKN 251957
MTRWMC
METAR KWMC 251956Z AUTO 18004KT 10SM FEW120 19/08 RMK AO2 SLPNO
T01940083 TSNO $





000
SAUS45 KLKN 251954
MTRP68
METAR KP68 251953Z AUTO 36008G15KT 18/04 A3002 RMK AO1 SLP116
T01830039





000
SAUS45 KLKN 251858
MTRWMC
METAR KWMC 251856Z AUTO 14007KT 10SM CLR 21/09 RMK AO2 SLPNO
T02110089 TSNO $





000
SAUS45 KLKN 251858
MTRWMC
METAR KWMC 251856Z AUTO 14007KT 10SM CLR 21/09 RMK AO2 SLPNO
T02110089 TSNO $





000
SAUS45 KLKN 251854
MTRP68
METAR KP68 251853Z AUTO 03005KT 19/04 A3003 RMK AO1 SLP114 T01890039





000
SAUS45 KLKN 251854
MTRP68
METAR KP68 251853Z AUTO 03005KT 19/04 A3003 RMK AO1 SLP114 T01890039





000
SAUS45 KLKN 251758
MTRWMC
METAR KWMC 251756Z AUTO VRB06KT 10SM CLR 20/08 RMK AO2 SLPNO
T02000083 10200 20061 TSNO $





000
SAUS45 KLKN 251758
MTRWMC
METAR KWMC 251756Z AUTO VRB06KT 10SM CLR 20/08 RMK AO2 SLPNO
T02000083 10200 20061 TSNO $





000
SAUS45 KLKN 251754
MTRP68
METAR KP68 251753Z AUTO VRB03KT 17/04 A3004 RMK AO1 SLP119 T01670039
10178 20039 58002





000
SAUS45 KLKN 251658
MTRWMC
METAR KWMC 251656Z AUTO 18006KT 10SM BKN120 18/08 RMK AO2 SLPNO
T01780083 TSNO $





000
SAUS45 KLKN 251658
MTRWMC
METAR KWMC 251656Z AUTO 18006KT 10SM BKN120 18/08 RMK AO2 SLPNO
T01780083 TSNO $





000
SAUS45 KLKN 251655
MTRP68
METAR KP68 251653Z AUTO 24006KT 16/03 A3004 RMK AO1 SLP122 T01610033





000
SAUS45 KLKN 251655
MTRP68
METAR KP68 251653Z AUTO 24006KT 16/03 A3004 RMK AO1 SLP122 T01610033





000
SAUS45 KLKN 251557
MTRWMC
METAR KWMC 251556Z AUTO 15006KT 10SM OVC110 16/08 RMK AO2 SLPNO
T01560083 TSNO $





000
SAUS45 KLKN 251555
MTRP68
METAR KP68 251553Z AUTO VRB04KT 14/05 A3004 RMK AO1 SLP124 T01390050





000
SAUS45 KLKN 251457
MTRWMC
METAR KWMC 251456Z AUTO 00000KT 10SM OVC110 12/08 RMK AO2 SLPNO
T01170083 TSNO $





000
SAUS45 KLKN 251457
MTRWMC
METAR KWMC 251456Z AUTO 00000KT 10SM OVC110 12/08 RMK AO2 SLPNO
T01170083 TSNO $





000
SAUS45 KLKN 251454
MTRP68
METAR KP68 251453Z AUTO 00000KT 11/06 A3004 RMK AO1 SLP124 T01110056
53005





000
SAUS45 KLKN 251358
MTRWMC
METAR KWMC 251356Z AUTO 12004KT 10SM BKN110 09/07 RMK AO2 SLPNO
T00890072 TSNO $





000
SAUS45 KLKN 251354
MTRP68
METAR KP68 251353Z AUTO 20004KT 08/04 A3004 RMK AO1 SLP128 T00780044





000
SAUS45 KLKN 251257
MTRWMC
METAR KWMC 251256Z AUTO 00000KT 10SM FEW080 OVC110 07/06 RMK AO2
SLPNO T00670056 TSNO $





000
SAUS45 KLKN 251254
MTRP68
METAR KP68 251253Z AUTO 19007KT 04/02 A3003 RMK AO1 SLP128 T00440022





000
SAUS45 KLKN 251158
MTRWMC
METAR KWMC 251156Z AUTO 11005KT 10SM CLR 06/05 RMK AO2 SLPNO 70036
T00610050 10122 20061 TSNO $





000
SAUS45 KLKN 251158
MTRWMC
METAR KWMC 251156Z AUTO 11005KT 10SM CLR 06/05 RMK AO2 SLPNO 70036
T00610050 10122 20061 TSNO $





000
SAUS45 KLKN 251154
MTRP68
METAR KP68 251153Z AUTO 19007KT 04/02 A3003 RMK AO1 SLP124 70013
T00440022 10072 20033 52002





000
SAUS45 KLKN 251154
MTRP68
METAR KP68 251153Z AUTO 19007KT 04/02 A3003 RMK AO1 SLP124 70013
T00440022 10072 20033 52002





000
SAUS45 KLKN 251058
MTRWMC
METAR KWMC 251056Z AUTO 18004KT 10SM CLR 07/06 RMK AO2 SLPNO
T00720061 TSNO $





000
SAUS45 KLKN 251058
MTRWMC
METAR KWMC 251056Z AUTO 18004KT 10SM CLR 07/06 RMK AO2 SLPNO
T00720061 TSNO $





000
SAUS45 KLKN 251054
MTRP68
METAR KP68 251053Z AUTO 22007KT 04/02 A3003 RMK AO1 SLP129 T00440022





000
SAUS45 KLKN 251054
MTRP68
METAR KP68 251053Z AUTO 22007KT 04/02 A3003 RMK AO1 SLP129 T00440022





000
SAUS45 KLKN 250957
MTRWMC
METAR KWMC 250956Z AUTO 14005KT 10SM CLR 07/06 RMK AO2 SLPNO
T00720061 TSNO $





000
SAUS45 KLKN 250957
MTRWMC
METAR KWMC 250956Z AUTO 14005KT 10SM CLR 07/06 RMK AO2 SLPNO
T00720061 TSNO $





000
SAUS45 KLKN 250955
MTRP68
METAR KP68 250953Z AUTO 17007KT 05/03 A3002 RMK AO1 SLP120 T00500028





000
SAUS45 KLKN 250955
MTRP68
METAR KP68 250953Z AUTO 17007KT 05/03 A3002 RMK AO1 SLP120 T00500028





000
SAUS45 KLKN 250858
MTRWMC
METAR KWMC 250856Z AUTO 16004KT 10SM CLR 08/07 RMK AO2 SLPNO
T00780067 TSNO $





000
SAUS45 KLKN 250858
MTRWMC
METAR KWMC 250856Z AUTO 16004KT 10SM CLR 08/07 RMK AO2 SLPNO
T00780067 TSNO $





000
SAUS45 KLKN 250855
MTRP68
METAR KP68 250853Z AUTO 19005KT 04/02 A3002 RMK AO1 SLP117 T00440022
58001





000
SAUS45 KLKN 250758
MTRWMC
METAR KWMC 250756Z AUTO 18007KT 10SM CLR 11/07 A2995 RMK AO2 SLP110
T01110072 402110089 TSNO





000
SAUS45 KLKN 250758
MTRWMC
METAR KWMC 250756Z AUTO 18007KT 10SM CLR 11/07 A2995 RMK AO2 SLP110
T01110072 402110089 TSNO





000
SAUS45 KLKN 250754
MTRP68
METAR KP68 250753Z AUTO 00000KT 05/02 A3002 RMK AO1 SLP123 T00500022
401780044





000
SAUS45 KLKN 250754
MTRP68
METAR KP68 250753Z AUTO 00000KT 05/02 A3002 RMK AO1 SLP123 T00500022
401780044





000
SAUS45 KLKN 250657
MTRWMC
METAR KWMC 250656Z AUTO 18008KT 10SM CLR 11/08 A2995 RMK AO2 SLP115
T01060078 TSNO





000
SAUS45 KLKN 250657
MTRWMC
METAR KWMC 250656Z AUTO 18008KT 10SM CLR 11/08 A2995 RMK AO2 SLP115
T01060078 TSNO





000
SAUS45 KLKN 250654
MTRP68
METAR KP68 250653Z AUTO 15008KT 07/03 A3002 RMK AO1 SLP121 T00670033





000
SAUS45 KLKN 250557
MTRWMC
METAR KWMC 250556Z AUTO 17005KT 10SM CLR 12/08 A2996 RMK AO2 SLP119
T01220078 10211 20117 51009 TSNO





000
SAUS45 KLKN 250557
MTRWMC
METAR KWMC 250556Z AUTO 17005KT 10SM CLR 12/08 A2996 RMK AO2 SLP119
T01220078 10211 20117 51009 TSNO





000
SAUS45 KLKN 250554
MTRP68
METAR KP68 250553Z AUTO 20009KT 07/04 A3002 RMK AO1 SLP123 T00720039
10156 20072 50005





000
SAUS45 KLKN 250554
MTRP68
METAR KP68 250553Z AUTO 20009KT 07/04 A3002 RMK AO1 SLP123 T00720039
10156 20072 50005





000
SAUS45 KLKN 250457
MTRWMC
METAR KWMC 250456Z AUTO 18009KT 10SM SCT110 12/08 A2996 RMK AO2
SLP116 T01220083 TSNO





000
SAUS45 KLKN 250454
MTRP68
METAR KP68 250453Z AUTO 00000KT 08/04 A3003 RMK AO1 SLP128 T00780044





000
SAUS45 KLKN 250454
MTRP68
METAR KP68 250453Z AUTO 00000KT 08/04 A3003 RMK AO1 SLP128 T00780044





000
SAUS45 KLKN 250357
MTRWMC
METAR KWMC 250356Z AUTO 17010KT 10SM CLR 14/08 A2994 RMK AO2 SLP112
T01390078 TSNO





000
SAUS45 KLKN 250354
MTRP68
METAR KP68 250353Z AUTO 17003KT 09/06 A3002 RMK AO1 SLP123 T00940056





000
SAUS45 KLKN 250257
MTRWMC
METAR KWMC 250256Z AUTO 16009KT 10SM CLR 16/10 A2993 RMK AO2 SLP107
T01560100 53002 TSNO





000
SAUS45 KLKN 250257
MTRWMC
METAR KWMC 250256Z AUTO 16009KT 10SM CLR 16/10 A2993 RMK AO2 SLP107
T01560100 53002 TSNO





000
SAUS45 KLKN 250254
MTRP68
METAR KP68 250253Z AUTO 07003KT 12/06 A3000 RMK AO1 SLP114 T01170061
51005





000
SAUS45 KLKN 250254
MTRP68
METAR KP68 250253Z AUTO 07003KT 12/06 A3000 RMK AO1 SLP114 T01170061
51005





000
SAUS45 KLKN 250157
MTRWMC
METAR KWMC 250156Z AUTO 36004KT 10SM CLR 21/07 A2992 RMK AO2 SLP098
T02110067 TSNO





000
SAUS45 KLKN 250155
MTRP68
METAR KP68 250153Z AUTO 34007KT 12/06 A3000 RMK AO1 SLP114 T01220061





000
SAUS45 KLKN 250155
MTRP68
METAR KP68 250153Z AUTO 34007KT 12/06 A3000 RMK AO1 SLP114 T01220061





000
SAUS45 KLKN 250058
MTRWMC
METAR KWMC 250056Z AUTO 32006KT 10SM BKN100 21/08 A2992 RMK AO2
SLP102 T02060078 TSNO





000
SAUS45 KLKN 250058
MTRWMC
METAR KWMC 250056Z AUTO 32006KT 10SM BKN100 21/08 A2992 RMK AO2
SLP102 T02060078 TSNO





000
SAUS45 KLKN 250054
MTRP68
METAR KP68 250053Z AUTO 36012KT 14/04 A2999 RMK AO1 PK WND
36029/0007 SLP105 T01440044





000
SAUS45 KLKN 250054
MTRP68
METAR KP68 250053Z AUTO 36012KT 14/04 A2999 RMK AO1 PK WND
36029/0007 SLP105 T01440044





000
SAUS45 KLKN 242358
MTRWMC
METAR KWMC 242356Z AUTO 36007KT 10SM BKN100 19/09 A2993 RMK AO2
SLP104 60036 T01940094 10206 20139 TSNO





000
SAUS45 KLKN 242358
MTRWMC
METAR KWMC 242356Z AUTO 36007KT 10SM BKN100 19/09 A2993 RMK AO2
SLP104 60036 T01940094 10206 20139 TSNO





000
SAUS45 KLKN 242355
MTRP68
METAR KP68 242353Z AUTO 01012KT 16/07 A2998 RMK AO1 SLP101 60009
T01560072 10178 20122 58001





000
SAUS45 KLKN 242355
MTRP68
METAR KP68 242353Z AUTO 01012KT 16/07 A2998 RMK AO1 SLP101 60009
T01560072 10178 20122 58001





000
SAUS45 KLKN 242257
MTRWMC
METAR KWMC 242256Z AUTO 27010KT 10SM SCT050 BKN065 OVC080 16/10 RMK
AO2 WSHFT 2153 RAB2158E53 SLPNO P0036 T01560100 TSNO $





000
SAUS45 KLKN 242257
MTRWMC
METAR KWMC 242256Z AUTO 27010KT 10SM SCT050 BKN065 OVC080 16/10 RMK
AO2 WSHFT 2153 RAB2158E53 SLPNO P0036 T01560100 TSNO $





000
SAUS45 KLKN 242255
MTRWMC
SPECI KWMC 242254Z AUTO 25008G18KT 10SM SCT050 BKN065 OVC080 15/10
RMK AO2 WSHFT 2153 RAB2158E53 P0036 TSNO $





000
SAUS45 KLKN 242254
MTRP68
METAR KP68 242253Z AUTO 28011KT 13/07 A2999 RMK AO1 SLP111 P0009
T01280072





000
SAUS45 KLKN 242248
MTRWMC
SPECI KWMC 242247Z AUTO 23014G18KT 2 1/2SM -RA FEW023 BKN070 OVC080
14/09 RMK AO2 WSHFT 2153 RAB2158 P0036 T01440094 TSNO $





000
SAUS45 KLKN 242239
MTRWMC
SPECI KWMC 242238Z AUTO 25009KT 7SM -RA FEW029 BKN070 OVC080 15/09
RMK AO2 WSHFT 2153 RAB2158 P0028 T01500094 TSNO $





000
SAUS45 KLKN 242239
MTRWMC
SPECI KWMC 242238Z AUTO 25009KT 7SM -RA FEW029 BKN070 OVC080 15/09
RMK AO2 WSHFT 2153 RAB2158 P0028 T01500094 TSNO $





000
SAUS45 KLKN 242232
MTRWMC
SPECI KWMC 242231Z AUTO 00000KT 2 1/2SM -RA FEW043 SCT055 OVC075
16/07 RMK AO2 WSHFT 2153 RAB2158 P0028 T01560072 TSNO $





000
SAUS45 KLKN 242223
MTRWMC
SPECI KWMC 242222Z AUTO 28011KT 1 1/4SM +RA FEW041 BKN055 OVC080
14/09 RMK AO2 WSHFT 2153 RAB2158 P0015 T01390094 TSNO $





000
SAUS45 KLKN 242208
MTRWMC
SPECI KWMC 242207Z AUTO 35013KT 2SM +RA BKN055 OVC070 15/11 RMK AO2
WSHFT 2153 RAB2158 P0004 T01500111 TSNO $





000
SAUS45 KLKN 242158
MTRWMC
METAR KWMC 242156Z AUTO 33012KT 9SM BKN055 OVC065 19/08 RMK AO2
SLPNO T01890083 TSNO $





000
SAUS45 KLKN 242154
MTRP68
METAR KP68 242153Z AUTO 27011KT 16/05 A2999 RMK AO1 SLP101 T01610050





000
SAUS45 KLKN 242058
MTRWMC
METAR KWMC 242056Z AUTO VRB04KT 10SM SCT050 SCT100 20/08 RMK AO2
SLPNO T02000083 TSNO $





000
SAUS45 KLKN 242054
MTRP68
METAR KP68 242053Z AUTO 01008G14KT 17/06 A2999 RMK AO1 SLP098
T01720056 58019





000
SAUS45 KLKN 241957
MTRWMC
METAR KWMC 241956Z AUTO 10SM FEW039 20/10 RMK AO2 SLPNO T02000100
TSNO $





000
SAUS45 KLKN 241957
MTRWMC
METAR KWMC 241956Z AUTO 10SM FEW039 20/10 RMK AO2 SLPNO T02000100
TSNO $





000
SAUS45 KLKN 241955
MTRP68
METAR KP68 241953Z AUTO VRB03KT 15/06 A3002 RMK AO1 SLP113 T01500061





000
SAUS45 KLKN 241857
MTRWMC
METAR KWMC 241856Z AUTO 10SM SCT032 BKN043 18/10 RMK AO2 SLPNO
T01780100 TSNO $





000
SAUS45 KLKN 241854
MTRP68
METAR KP68 241853Z AUTO 01006KT 14/07 A3004 RMK AO1 SLP123 T01390067





000
SAUS45 KLKN 241854
MTRP68
METAR KP68 241853Z AUTO 01006KT 14/07 A3004 RMK AO1 SLP123 T01390067





000
SAUS45 KLKN 241757
MTRWMC
METAR KWMC 241756Z AUTO 32003KT 10SM FEW027 BKN036 BKN100 16/09 RMK
AO2 SLPNO T01560094 10167 20089 TSNO $





000
SAUS45 KLKN 241757
MTRWMC
METAR KWMC 241756Z AUTO 32003KT 10SM FEW027 BKN036 BKN100 16/09 RMK
AO2 SLPNO T01560094 10167 20089 TSNO $





000
SAUS45 KLKN 241754
MTRP68
METAR KP68 241753Z AUTO 03004KT 13/08 A3005 RMK AO1 SLP130 60004
T01280078 10128 20083 51001





000
SAUS45 KLKN 241754
MTRP68
METAR KP68 241753Z AUTO 03004KT 13/08 A3005 RMK AO1 SLP130 60004
T01280078 10128 20083 51001





000
SAUS45 KLKN 241657
MTRWMC
METAR KWMC 241656Z AUTO 32005KT 10SM BKN110 16/10 RMK AO2 SLPNO
T01610100 TSNO $





000
SAUS45 KLKN 241657
MTRWMC
METAR KWMC 241656Z AUTO 32005KT 10SM BKN110 16/10 RMK AO2 SLPNO
T01610100 TSNO $





000
SAUS45 KLKN 241654
MTRP68
METAR KP68 241653Z AUTO 00000KT 11/07 A3005 RMK AO1 SLP132 P0003
T01110072





000
SAUS45 KLKN 241557
MTRWMC
METAR KWMC 241556Z AUTO 27005KT 10SM FEW024 BKN090 OVC100 13/10 RMK
AO2 SLPNO T01330100 TSNO $





000
SAUS45 KLKN 241554
MTRP68
METAR KP68 241553Z AUTO 35003KT 09/07 A3006 RMK AO1 SLP136 P0001
T00940067





000
SAUS45 KLKN 241457
MTRWMC
METAR KWMC 241456Z AUTO 00000KT 10SM FEW007 BKN100 13/11 RMK AO2
SLPNO T01330106 TSNO $





000
SAUS45 KLKN 241457
MTRWMC
METAR KWMC 241456Z AUTO 00000KT 10SM FEW007 BKN100 13/11 RMK AO2
SLPNO T01330106 TSNO $





000
SAUS45 KLKN 241454
MTRP68
METAR KP68 241453Z AUTO 00000KT 09/07 A3005 RMK AO1 SLP133 T00940067
51007





000
SAUS45 KLKN 241424
MTRWMC
SPECI KWMC 241423Z AUTO 00000KT 10SM FEW006 BKN110 12/11 RMK AO2
T01170106 TSNO $





000
SAUS45 KLKN 241357
MTRWMC
METAR KWMC 241356Z AUTO 07003KT 10SM SCT100 12/11 RMK AO2 SLPNO
T01170106 TSNO $





000
SAUS45 KLKN 241355
MTRP68
METAR KP68 241353Z AUTO 34004KT 09/07 A3005 RMK AO1 SLP133 T00890067





000
SAUS45 KLKN 241257
MTRWMC
METAR KWMC 241256Z AUTO 00000KT 9SM CLR 09/09 RMK AO2 SLPNO
T00890089 TSNO $





000
SAUS45 KLKN 241254
MTRP68
METAR KP68 241253Z AUTO 31003KT 09/07 A3004 RMK AO1 SLP129 T00890067





000
SAUS45 KLKN 241157
MTRWMC
METAR KWMC 241156Z AUTO 11003KT 10SM SCT060 OVC080 11/10 RMK AO2
RAE44 SLPNO P0001 60007 70081 T01060100 10111 20100 TSNO $





000
SAUS45 KLKN 241154
MTRP68
METAR KP68 241153Z AUTO 29003KT 08/07 A3003 RMK AO1 SLP121 60003
70012 T00830067 10100 20083 56002





000
SAUS45 KLKN 241154
MTRP68
METAR KP68 241153Z AUTO 29003KT 08/07 A3003 RMK AO1 SLP121 60003
70012 T00830067 10100 20083 56002





000
SAUS45 KLKN 241057
MTRWMC
METAR KWMC 241056Z AUTO 00000KT 10SM -RA BKN070 OVC100 11/10 RMK AO2
RAB02 SLPNO P0006 T01060100 TSNO $





000
SAUS45 KLKN 241054
MTRP68
METAR KP68 241053Z AUTO 32005KT 08/07 A3003 RMK AO1 SLP121 T00830067





000
SAUS45 KLKN 241054
MTRP68
METAR KP68 241053Z AUTO 32005KT 08/07 A3003 RMK AO1 SLP121 T00830067





000
SAUS45 KLKN 241043
MTRWMC
SPECI KWMC 241042Z AUTO 28003KT 10SM -RA FEW033 SCT048 OVC070 11/10
RMK AO2 RAB02 P0005 T01060100 TSNO $





000
SAUS45 KLKN 241035
MTRWMC
SPECI KWMC 241034Z AUTO 30004KT 2 1/2SM -RA BR SCT033 BKN048 OVC065
11/10 RMK AO2 RAB02 P0005 T01060100 TSNO $





000
SAUS45 KLKN 241035
MTRWMC
SPECI KWMC 241034Z AUTO 30004KT 2 1/2SM -RA BR SCT033 BKN048 OVC065
11/10 RMK AO2 RAB02 P0005 T01060100 TSNO $





    US Dept of Commerce
    National Oceanic and Atmospheric Administration
    National Weather Service
    1325 East West Highway
    Silver Spring, MD 20910
    Page Author: NWS Internet Services Team
Disclaimer
Information Quality
Credits
Glossary
Privacy Policy
Freedom of Information Act (FOIA)
About Us
Career Opportunities